Latest METARs, TAFs and NOTAMs for ETSI


---------------------------------------------------------------------------
	(OBSERVATIONS)
ETSI 300220Z AUTO 23006KT 7000 // ////// 14/13 Q1005 ///=
ETSI 300120Z AUTO 23005KT 5000 // ////// 14/13 Q1005 ///=
ETSI 300020Z AUTO 23006KT 6000 // ////// 14/13 Q1005 ///=
---------------------------------------------------------------------------
	(FC)
Sorry, FC For ETSI Not Found
---------------------------------------------------------------------------
	(TERMINAL AREA FORECAST)
Sorry, no TAF available for ETSI
---------------------------------------------------------------------------
	(NOTAMS)


ETSI P1505/16 AD ETSI: TACAN APCH RWY07R SUSPENDED. 04 MAR 07:59
    2016 UNTIL 03 JUN 11:00 2016. CREATED: 04 MAR 08:02 2016

ETSI P1506/16 AD ETSI: PAR RWY25L/07R OUT OF SERVICE. 04 MAR
    08:00 2016 UNTIL 03 JUN 11:00 2016. CREATED: 04 MAR 08:04
    2016

ETSI P1507/16 AD ETSI: PAR RWY25R/07L OUT OF SERVICE. 04 MAR
    08:01 2016 UNTIL 03 JUN 11:00 2016. CREATED: 04 MAR 08:05
    2016

ETSI P1508/16 AD ETSI: NO SRA POSSIBLE. 04 MAR 08:02 2016 UNTIL
    03 JUN 11:00 2016. CREATED: 04 MAR 08:06 2016

ETSI P1509/16 AD ETSI: LIMITED RADAR COVERAGE BELOW 5000FT MSL.
    DETAILED INFORMATION BY INGO RADAR. 04 MAR 08:02 2016 UNTIL
    03 JUN 11:00 2016. CREATED: 04 MAR 08:07 2016

ETSI P1765/16 AD ETSI: AD OPENING HOURS CHANGED TO: MON-THU 0700-1400
    FRI 0700-1100. 29 MAR 07:00 2016 UNTIL 01 JUL 11:00 2016.
    CREATED: 15 MAR 08:25 2016

ETSI P2093/16 AD ETSI: RWY25R CABLE NO.2 OUT OF SERVICE. 30 MAR
    13:40 2016 UNTIL 03 JUN 12:00 2016. CREATED: 30 MAR 13:40
    2016

ETSI P2094/16 AD ETSI: RWY25L CABLE NO.1 OUT OF SERVICE. 30 MAR
    13:40 2016 UNTIL 03 JUN 12:00 2016. CREATED: 30 MAR 13:42
    2016

ETSI P3281/16 AD ETSI: AERODROME CLOSED EXCEPT CIVIL AIR TRAFFIC
    WITH PPR. 27 MAY 10:00 2016 UNTIL 30 MAY 07:00 2016. CREATED:
    24 MAY 09:25 2016

ETSI U0023/16 AD ETSI INGOLSTADT/MANCHING GEMIL FLIP VAD JET
    AND EUROFIGHTER FLIP ARR/DEP JET RWY 07R/25L AND ARR/DEP
    JET RWY 07L/25R CHARTS SUSPENDED. SEE MIL AIP SUP 03/16 FOR
    DETAILS. 31 MAR 00:01 2016 UNTIL PERM. CREATED: 11 MAR 10:40
    2016

---------------------------------------------------------------------------